McCarthy, AK

2:51 AM AKDT on September 17, 2014 (GMT -0800)
McCarthy | Change Station
CLOSE
Current Station
Airport
Location: McCarthy,
Elevation: 1493 ft
Nearby Weather Stations

Elev 1493 ft 61.43 °N, 142.93 °W | Updated 16 days ago

Rain
Rain
37 °F
Feels Like 37 °F
N
5
Wind Variable Wind from East
Gusts 5 mph

Today
High -- | Low -- °F
--% Chance of Precip.
Yesterday
High -- | Low -- °F
Precip. -- in
7:03 AM 7:47 PM
Last Quarter, 37% visible
Pressure 29.68 in
Visibility 25.0 miles
Clouds Mostly Cloudy 4800 ft
Mostly Cloudy 6500 ft
Dew Point 32 °F
Humidity 81%
Rainfall 0.00 in
Snow Depth 0 in , 109 in , 164 in
UV 0 out of 12
Pollen Not available.
Air Quality Not available.
Flu Activity Not available.
METAR PAMX 010259Z 19004KT 25SM BKN048 BKN065 11/07 A2968 RMK MAX 16 70005 LAST

More Conditions Fewer Conditions

Pressure 29.68 in
Visibility 25.0 miles
Clouds Mostly Cloudy 4800 ft
Mostly Cloudy 6500 ft
Dew Point 32 °F
Humidity 81%
Rainfall 0.00 in
Snow Depth 0 in , 109 in , 164 in
UV 0 out of 12
Pollen Not available.
Air Quality Not available.
Flu Activity Not available.
METAR PAMX 010259Z 19004KT 25SM BKN048 BKN065 11/07 A2968 RMK MAX 16 70005 LAST

More Conditions Fewer Conditions

10-Day Weather Forecast

Almanac

Astronomy

Sep. 17, 2014 Rise Set
Actual Time 7:03 AM AKDT 7:47 PM AKDT
Civil Twilight 6:19 AM AKDT 8:30 PM AKDT
Nautical Twilight 5:25 AM AKDT 9:24 PM AKDT
Astronomical Twilight 4:23 AM AKDT 10:25 PM AKDT
Moon No Moon Rise 5:12 PM AKDT
Length of Visible Light 14h 11m
Length of Day
12h 43m
Tomorrow will be 5m 44s shorter.
Last Quarter, 37% of the Moon is Illuminated
Today
Last Quarter
Sep 24
New
Oct 1
First Quarter
Oct 8
Full
Oct 15
Last Quarter

Today's Extremes

State Highs State Lows

Community

WunderPhotos

Upload Photos

1,753,993 photos uploaded!

Nearby

Snow Depth

Station Depth Elevation
Granite Creek 0 in 1240 ft
Susitna Valley High 109 in 375 ft
Nuka Glacier 164 in 1250 ft
Moraine 0 in 2100 ft
Mcneil Canyon 1 in 1320 ft

Earthquake Activity

City Distance Mag. Time & Date
No recent earthquake activity has been reported nearby.
Minimum magnitude displayed is 2.5.

Coastal Water Temperatures

Place Temperature
No Stations Reporting

Nearby Weather Stations